AMQ132 EPKT-LGRP
Flight info
| Callsign | AMQ132 |
|---|---|
| Flight time | 2h 18m |
| Altitude | 23000 |
| Route | REGTO T195 RAZEC N133 KEKED/N0451F350 DCT PERIT DCT NARKA DCT LOMOS DCT NIKTI DCT MES UN139 LURUS UL995 CODIC |
| Aircraft | A321/M-SDE3FGHIRWY/LB1 |
Departure
| Time | 2026-05-01 09:13 |
|---|---|
| Airport | Katowice Wojciech Korfanty International Airport (EPKT) |
Arrival
| Time | 2026-05-01 11:31 |
|---|---|
| Airport | Rhodes International Airport "Diagoras" (LGRP) |
| Time | Latitude | Longitude | Altitude | Speed | Heading |
|---|---|---|---|---|---|
| 2026-05-01 08:49 | 50.47168 | 19.07079 | 1000 ft | 0 kts | 180° |
| 2026-05-01 08:59 | 50.47169 | 19.07079 | 998 ft | 1 kts | 180° |
| 2026-05-01 08:59 | 50.47192 | 19.07079 | 998 ft | 4 kts | 178° |
| 2026-05-01 09:00 | 50.47218 | 19.07072 | 998 ft | 4 kts | 150° |
| 2026-05-01 09:00 | 50.47234 | 19.07045 | 1000 ft | 4 kts | 101° |
| 2026-05-01 09:00 | 50.47236 | 19.07032 | 998 ft | 0 kts | 90° |
| 2026-05-01 09:03 | 50.47235 | 19.07056 | 1000 ft | 7 kts | 90° |
| 2026-05-01 09:04 | 50.47235 | 19.07178 | 1003 ft | 13 kts | 90° |
| 2026-05-01 09:04 | 50.47235 | 19.07314 | 1002 ft | 12 kts | 90° |
| 2026-05-01 09:04 | 50.47234 | 19.07433 | 1003 ft | 10 kts | 90° |
| 2026-05-01 09:04 | 50.47234 | 19.07535 | 1000 ft | 9 kts | 90° |
| 2026-05-01 09:05 | 50.47234 | 19.07596 | 1003 ft | 3 kts | 90° |
| 2026-05-01 09:05 | 50.47234 | 19.07614 | 1003 ft | 0 kts | 90° |
| 2026-05-01 09:06 | 50.47234 | 19.07615 | 1003 ft | 1 kts | 90° |
| 2026-05-01 09:06 | 50.47234 | 19.07660 | 1003 ft | 7 kts | 90° |
| 2026-05-01 09:06 | 50.47234 | 19.07768 | 1003 ft | 13 kts | 90° |
| 2026-05-01 09:07 | 50.47234 | 19.07938 | 1003 ft | 18 kts | 91° |
| 2026-05-01 09:07 | 50.47232 | 19.08148 | 1004 ft | 19 kts | 90° |
| 2026-05-01 09:07 | 50.47232 | 19.08352 | 1004 ft | 18 kts | 90° |
| 2026-05-01 09:07 | 50.47232 | 19.08541 | 1000 ft | 18 kts | 90° |
| 2026-05-01 09:08 | 50.47233 | 19.08782 | 1002 ft | 26 kts | 89° |
| 2026-05-01 09:08 | 50.47232 | 19.09052 | 1004 ft | 21 kts | 91° |
| 2026-05-01 09:08 | 50.47230 | 19.09277 | 1002 ft | 20 kts | 90° |
| 2026-05-01 09:08 | 50.47230 | 19.09487 | 1004 ft | 19 kts | 90° |
| 2026-05-01 09:09 | 50.47230 | 19.09682 | 1000 ft | 17 kts | 90° |
| 2026-05-01 09:09 | 50.47229 | 19.09863 | 1000 ft | 16 kts | 90° |
| 2026-05-01 09:09 | 50.47241 | 19.10026 | 999 ft | 14 kts | 63° |
| 2026-05-01 09:09 | 50.47299 | 19.10151 | 998 ft | 16 kts | 52° |
| 2026-05-01 09:10 | 50.47378 | 19.10303 | 998 ft | 19 kts | 51° |
| 2026-05-01 09:10 | 50.47467 | 19.10438 | 1004 ft | 17 kts | 17° |
| 2026-05-01 09:10 | 50.47575 | 19.10432 | 1002 ft | 13 kts | 326° |
| 2026-05-01 09:10 | 50.47594 | 19.10321 | 1002 ft | 7 kts | 270° |
| 2026-05-01 09:11 | 50.47594 | 19.10314 | 1002 ft | 0 kts | 270° |
| 2026-05-01 09:12 | 50.47594 | 19.10281 | 1002 ft | 11 kts | 270° |
| 2026-05-01 09:12 | 50.47596 | 19.09829 | 1001 ft | 76 kts | 270° |
| 2026-05-01 09:12 | 50.47598 | 19.08673 | 1000 ft | 133 kts | 270° |
| 2026-05-01 09:12 | 50.47600 | 19.06995 | 1126 ft | 165 kts | 272° |
| 2026-05-01 09:13 | 50.47598 | 19.05215 | 1810 ft | 162 kts | 272° |
| 2026-05-01 09:13 | 50.47600 | 19.03445 | 2525 ft | 161 kts | 273° |
| 2026-05-01 09:13 | 50.47603 | 19.01715 | 3213 ft | 156 kts | 273° |
| 2026-05-01 09:13 | 50.47605 | 19.00054 | 3896 ft | 148 kts | 274° |
| 2026-05-01 09:14 | 50.47611 | 18.98362 | 4196 ft | 165 kts | 274° |
| 2026-05-01 09:14 | 50.47538 | 18.96443 | 4400 ft | 190 kts | 258° |
| 2026-05-01 09:14 | 50.46797 | 18.94609 | 4566 ft | 214 kts | 222° |
| 2026-05-01 09:14 | 50.45359 | 18.93740 | 4692 ft | 236 kts | 184° |
| 2026-05-01 09:15 | 50.43634 | 18.93710 | 4897 ft | 257 kts | 180° |
| 2026-05-01 09:15 | 50.41814 | 18.93723 | 5343 ft | 265 kts | 180° |
| 2026-05-01 09:15 | 50.39902 | 18.93736 | 5733 ft | 281 kts | 179° |
| 2026-05-01 09:15 | 50.37945 | 18.93744 | 6370 ft | 288 kts | 179° |
| 2026-05-01 09:16 | 50.35915 | 18.93999 | 7022 ft | 291 kts | 163° |
| 2026-05-01 09:16 | 50.34103 | 18.95368 | 7644 ft | 290 kts | 137° |
| 2026-05-01 09:16 | 50.32667 | 18.97565 | 8317 ft | 289 kts | 129° |
| 2026-05-01 09:17 | 50.29875 | 19.02150 | 9729 ft | 293 kts | 128° |
| 2026-05-01 09:17 | 50.28464 | 19.04465 | 10400 ft | 295 kts | 128° |
| 2026-05-01 09:17 | 50.25461 | 19.09394 | 10793 ft | 333 kts | 128° |
| 2026-05-01 09:18 | 50.23817 | 19.12086 | 10918 ft | 352 kts | 129° |
| 2026-05-01 09:18 | 50.20297 | 19.17786 | 11661 ft | 371 kts | 129° |
| 2026-05-01 09:19 | 50.16672 | 19.23605 | 12788 ft | 377 kts | 129° |
| 2026-05-01 09:19 | 50.14841 | 19.26550 | 13329 ft | 380 kts | 129° |
| 2026-05-01 09:19 | 50.12995 | 19.29526 | 13855 ft | 383 kts | 129° |
| 2026-05-01 09:20 | 50.09270 | 19.35544 | 14821 ft | 388 kts | 128° |
| 2026-05-01 09:20 | 50.05489 | 19.41625 | 15773 ft | 393 kts | 128° |
| 2026-05-01 09:21 | 50.01669 | 19.47755 | 16684 ft | 396 kts | 128° |
| 2026-05-01 09:21 | 49.99744 | 19.50836 | 17131 ft | 399 kts | 128° |
| 2026-05-01 09:21 | 49.95855 | 19.57050 | 17952 ft | 403 kts | 128° |
| 2026-05-01 09:22 | 49.91926 | 19.63313 | 18748 ft | 407 kts | 128° |
| 2026-05-01 09:22 | 49.87971 | 19.69641 | 19433 ft | 408 kts | 124° |
| 2026-05-01 09:23 | 49.86237 | 19.73087 | 19795 ft | 405 kts | 120° |
| 2026-05-01 09:23 | 49.82849 | 19.80122 | 20534 ft | 409 kts | 120° |
| 2026-05-01 09:24 | 49.79424 | 19.87191 | 21315 ft | 412 kts | 120° |
| 2026-05-01 09:24 | 49.77696 | 19.90758 | 21676 ft | 415 kts | 119° |
| 2026-05-01 09:24 | 49.74215 | 19.97923 | 22461 ft | 419 kts | 119° |
| 2026-05-01 09:25 | 49.70687 | 20.05127 | 23206 ft | 422 kts | 119° |
| 2026-05-01 09:25 | 49.67136 | 20.12379 | 23892 ft | 425 kts | 119° |
| 2026-05-01 09:26 | 49.65371 | 20.15985 | 24170 ft | 427 kts | 119° |
| 2026-05-01 09:26 | 49.61771 | 20.23311 | 24754 ft | 430 kts | 119° |
| 2026-05-01 09:26 | 49.59958 | 20.26996 | 25030 ft | 432 kts | 119° |
| 2026-05-01 09:27 | 49.56309 | 20.34389 | 25613 ft | 435 kts | 119° |
| 2026-05-01 09:27 | 49.54469 | 20.38111 | 25888 ft | 437 kts | 119° |
| 2026-05-01 09:27 | 49.52625 | 20.41835 | 26193 ft | 439 kts | 119° |
| 2026-05-01 09:28 | 49.50770 | 20.45576 | 26435 ft | 441 kts | 119° |
| 2026-05-01 09:28 | 49.48909 | 20.49330 | 26725 ft | 442 kts | 119° |
| 2026-05-01 09:28 | 49.47039 | 20.53097 | 27006 ft | 443 kts | 119° |
| 2026-05-01 09:28 | 49.45165 | 20.56859 | 27288 ft | 444 kts | 119° |
| 2026-05-01 09:29 | 49.41398 | 20.64400 | 27693 ft | 447 kts | 119° |
| 2026-05-01 09:29 | 49.39336 | 20.68032 | 27914 ft | 457 kts | 127° |
| 2026-05-01 09:30 | 49.34759 | 20.74880 | 28311 ft | 460 kts | 127° |
| 2026-05-01 09:30 | 49.32464 | 20.78313 | 28527 ft | 461 kts | 127° |
| 2026-05-01 09:30 | 49.27881 | 20.85154 | 29037 ft | 459 kts | 127° |
| 2026-05-01 09:31 | 49.25591 | 20.88570 | 29339 ft | 459 kts | 127° |
| 2026-05-01 09:31 | 49.23310 | 20.91975 | 29588 ft | 458 kts | 126° |
| 2026-05-01 09:31 | 49.18748 | 20.98755 | 30068 ft | 457 kts | 126° |
| 2026-05-01 09:32 | 49.16463 | 21.02135 | 30315 ft | 456 kts | 126° |
| 2026-05-01 09:32 | 49.11329 | 21.08080 | 30694 ft | 476 kts | 143° |
| 2026-05-01 09:32 | 49.08274 | 21.10151 | 30892 ft | 487 kts | 153° |
| 2026-05-01 09:33 | 49.04976 | 21.11532 | 31093 ft | 495 kts | 159° |
| 2026-05-01 09:33 | 49.01625 | 21.12741 | 31305 ft | 494 kts | 159° |
| 2026-05-01 09:33 | 48.94945 | 21.15169 | 31693 ft | 494 kts | 158° |
| 2026-05-01 09:34 | 48.91602 | 21.16388 | 31888 ft | 494 kts | 158° |
| 2026-05-01 09:34 | 48.88259 | 21.17603 | 32108 ft | 493 kts | 158° |
| 2026-05-01 09:34 | 48.81631 | 21.19999 | 32544 ft | 492 kts | 158° |
| 2026-05-01 09:35 | 48.78301 | 21.21204 | 32760 ft | 492 kts | 158° |
| 2026-05-01 09:35 | 48.71648 | 21.23608 | 33187 ft | 491 kts | 158° |
| 2026-05-01 09:35 | 48.68326 | 21.24802 | 33400 ft | 491 kts | 158° |
| 2026-05-01 09:36 | 48.64980 | 21.25896 | 33622 ft | 493 kts | 160° |
| 2026-05-01 09:36 | 48.61609 | 21.26857 | 33872 ft | 493 kts | 161° |
| 2026-05-01 09:36 | 48.58223 | 21.27728 | 34127 ft | 494 kts | 161° |
| 2026-05-01 09:36 | 48.54830 | 21.28561 | 34286 ft | 495 kts | 161° |
| 2026-05-01 09:37 | 48.51470 | 21.29542 | 34436 ft | 488 kts | 155° |
| 2026-05-01 09:37 | 48.44995 | 21.32399 | 34735 ft | 484 kts | 153° |
| 2026-05-01 09:37 | 48.41776 | 21.33880 | 34878 ft | 484 kts | 153° |
| 2026-05-01 09:38 | 48.35351 | 21.36862 | 35208 ft | 483 kts | 154° |
| 2026-05-01 09:38 | 48.32137 | 21.38343 | 35338 ft | 483 kts | 154° |
| 2026-05-01 09:39 | 48.22497 | 21.42724 | 35364 ft | 482 kts | 154° |
| 2026-05-01 09:39 | 48.16071 | 21.45612 | 35374 ft | 482 kts | 154° |
| 2026-05-01 09:40 | 48.06457 | 21.49935 | 35371 ft | 481 kts | 154° |
| 2026-05-01 09:41 | 48.00058 | 21.52810 | 35368 ft | 481 kts | 154° |
| 2026-05-01 09:41 | 47.90446 | 21.57100 | 35387 ft | 480 kts | 155° |
| 2026-05-01 09:42 | 47.84046 | 21.59958 | 35431 ft | 480 kts | 155° |
| 2026-05-01 09:43 | 47.71242 | 21.65656 | 35380 ft | 480 kts | 155° |
| 2026-05-01 09:43 | 47.64840 | 21.68481 | 35372 ft | 480 kts | 156° |
| 2026-05-01 09:44 | 47.56318 | 21.72225 | 35370 ft | 480 kts | 156° |
| 2026-05-01 09:45 | 47.49918 | 21.75039 | 35369 ft | 479 kts | 156° |
| 2026-05-01 09:45 | 47.39293 | 21.79717 | 35386 ft | 479 kts | 157° |
| 2026-05-01 09:46 | 47.33939 | 21.82049 | 35383 ft | 479 kts | 157° |
| 2026-05-01 09:46 | 47.27550 | 21.84819 | 35381 ft | 479 kts | 157° |
| 2026-05-01 09:47 | 47.21161 | 21.87598 | 35376 ft | 478 kts | 157° |
| 2026-05-01 09:47 | 47.14778 | 21.90365 | 35375 ft | 478 kts | 158° |
| 2026-05-01 09:48 | 47.08390 | 21.93111 | 35392 ft | 478 kts | 158° |
| 2026-05-01 09:48 | 47.02010 | 21.95851 | 35382 ft | 478 kts | 158° |
| 2026-05-01 09:49 | 46.95625 | 21.98585 | 35375 ft | 478 kts | 158° |
| 2026-05-01 09:49 | 46.89248 | 22.01323 | 35372 ft | 478 kts | 159° |
| 2026-05-01 09:50 | 46.82871 | 22.04057 | 35363 ft | 477 kts | 159° |
| 2026-05-01 09:50 | 46.76537 | 22.06758 | 35356 ft | 477 kts | 159° |
| 2026-05-01 09:51 | 46.70159 | 22.09467 | 35363 ft | 477 kts | 159° |
| 2026-05-01 09:51 | 46.63792 | 22.12170 | 35348 ft | 477 kts | 159° |
| 2026-05-01 09:52 | 46.57416 | 22.14870 | 35345 ft | 477 kts | 159° |
| 2026-05-01 09:52 | 46.51039 | 22.17556 | 35337 ft | 477 kts | 159° |
| 2026-05-01 09:53 | 46.44665 | 22.20232 | 35337 ft | 477 kts | 159° |
| 2026-05-01 09:53 | 46.38288 | 22.22921 | 35349 ft | 477 kts | 160° |
| 2026-05-01 09:54 | 46.31912 | 22.25592 | 35346 ft | 477 kts | 160° |
| 2026-05-01 09:54 | 46.25529 | 22.28256 | 35339 ft | 477 kts | 160° |
| 2026-05-01 09:55 | 46.19154 | 22.30925 | 35329 ft | 477 kts | 160° |
| 2026-05-01 09:55 | 46.12778 | 22.33583 | 35334 ft | 477 kts | 160° |
| 2026-05-01 09:56 | 46.06409 | 22.36225 | 35335 ft | 476 kts | 160° |
| 2026-05-01 09:56 | 46.00039 | 22.38856 | 35350 ft | 476 kts | 161° |
| 2026-05-01 09:57 | 45.93666 | 22.41488 | 35339 ft | 476 kts | 161° |
| 2026-05-01 09:57 | 45.87301 | 22.44112 | 35336 ft | 476 kts | 161° |
| 2026-05-01 09:58 | 45.80936 | 22.46724 | 35329 ft | 476 kts | 161° |
| 2026-05-01 09:58 | 45.74565 | 22.49337 | 35324 ft | 476 kts | 161° |
| 2026-05-01 09:59 | 45.68200 | 22.51945 | 35337 ft | 476 kts | 161° |
| 2026-05-01 09:59 | 45.61832 | 22.54539 | 35333 ft | 475 kts | 162° |
| 2026-05-01 10:00 | 45.55473 | 22.57128 | 35327 ft | 475 kts | 162° |
| 2026-05-01 10:00 | 45.49156 | 22.59694 | 35325 ft | 475 kts | 162° |
| 2026-05-01 10:01 | 45.42805 | 22.62277 | 35322 ft | 475 kts | 162° |
| 2026-05-01 10:01 | 45.36451 | 22.64842 | 35333 ft | 474 kts | 162° |
| 2026-05-01 10:02 | 45.30104 | 22.67397 | 35320 ft | 474 kts | 162° |
| 2026-05-01 10:02 | 45.23757 | 22.69951 | 35325 ft | 474 kts | 163° |
| 2026-05-01 10:03 | 45.17421 | 22.72493 | 35328 ft | 473 kts | 163° |
| 2026-05-01 10:03 | 45.11085 | 22.75029 | 35326 ft | 473 kts | 162° |
| 2026-05-01 10:04 | 45.04746 | 22.77570 | 35320 ft | 473 kts | 163° |
| 2026-05-01 10:04 | 44.98414 | 22.80096 | 35337 ft | 473 kts | 163° |
| 2026-05-01 10:05 | 44.92080 | 22.82610 | 35339 ft | 472 kts | 163° |
| 2026-05-01 10:05 | 44.85792 | 22.85108 | 35333 ft | 472 kts | 163° |
| 2026-05-01 10:06 | 44.79468 | 22.87608 | 35343 ft | 472 kts | 163° |
| 2026-05-01 10:06 | 44.73154 | 22.90112 | 35346 ft | 471 kts | 163° |
| 2026-05-01 10:07 | 44.66838 | 22.92600 | 35337 ft | 471 kts | 163° |
| 2026-05-01 10:07 | 44.60530 | 22.95080 | 35341 ft | 471 kts | 163° |
| 2026-05-01 10:08 | 44.51069 | 22.98790 | 35347 ft | 470 kts | 163° |
| 2026-05-01 10:09 | 44.44767 | 23.01255 | 35348 ft | 470 kts | 163° |
| 2026-05-01 10:09 | 44.38468 | 23.03720 | 35357 ft | 470 kts | 164° |
| 2026-05-01 10:10 | 44.32161 | 23.06170 | 35354 ft | 470 kts | 164° |
| 2026-05-01 10:10 | 44.22717 | 23.09837 | 35360 ft | 470 kts | 164° |
| 2026-05-01 10:11 | 44.16417 | 23.12280 | 35352 ft | 470 kts | 164° |
| 2026-05-01 10:11 | 44.10121 | 23.14708 | 35357 ft | 470 kts | 164° |
| 2026-05-01 10:12 | 44.03821 | 23.17140 | 35370 ft | 470 kts | 164° |
| 2026-05-01 10:13 | 43.94378 | 23.20774 | 35362 ft | 469 kts | 165° |
| 2026-05-01 10:13 | 43.88087 | 23.23186 | 35365 ft | 469 kts | 165° |
| 2026-05-01 10:14 | 43.78690 | 23.26798 | 35376 ft | 469 kts | 164° |
| 2026-05-01 10:14 | 43.72420 | 23.29295 | 35373 ft | 469 kts | 164° |
| 2026-05-01 10:15 | 43.66113 | 23.31809 | 35380 ft | 469 kts | 164° |
| 2026-05-01 10:15 | 43.59840 | 23.34281 | 35374 ft | 469 kts | 164° |
| 2026-05-01 10:16 | 43.53568 | 23.36729 | 35380 ft | 469 kts | 165° |
| 2026-05-01 10:17 | 43.44193 | 23.40400 | 35379 ft | 469 kts | 165° |
| 2026-05-01 10:17 | 43.34778 | 23.44073 | 35380 ft | 469 kts | 165° |
| 2026-05-01 10:18 | 43.25367 | 23.47729 | 35366 ft | 469 kts | 165° |
| 2026-05-01 10:19 | 43.19093 | 23.50166 | 35362 ft | 468 kts | 165° |
| 2026-05-01 10:19 | 43.12816 | 23.52597 | 35353 ft | 468 kts | 165° |
| 2026-05-01 10:20 | 43.03413 | 23.56224 | 35342 ft | 468 kts | 166° |
| 2026-05-01 10:20 | 42.97142 | 23.58642 | 35340 ft | 468 kts | 166° |
| 2026-05-01 10:21 | 42.87748 | 23.62244 | 35318 ft | 468 kts | 166° |
| 2026-05-01 10:22 | 42.78347 | 23.65840 | 35311 ft | 467 kts | 167° |
| 2026-05-01 10:23 | 42.68959 | 23.69430 | 35306 ft | 467 kts | 167° |
| 2026-05-01 10:23 | 42.59563 | 23.72997 | 35296 ft | 467 kts | 167° |
| 2026-05-01 10:24 | 42.47033 | 23.77760 | 35298 ft | 468 kts | 167° |
| 2026-05-01 10:25 | 42.34497 | 23.82473 | 35291 ft | 468 kts | 167° |
| 2026-05-01 10:26 | 42.28233 | 23.84828 | 35288 ft | 468 kts | 167° |
| 2026-05-01 10:27 | 42.15696 | 23.89544 | 35306 ft | 468 kts | 167° |
| 2026-05-01 10:28 | 42.06288 | 23.93049 | 35301 ft | 468 kts | 168° |
| 2026-05-01 10:28 | 41.96881 | 23.96551 | 35297 ft | 468 kts | 168° |
| 2026-05-01 10:29 | 41.87472 | 24.00048 | 35297 ft | 468 kts | 168° |
| 2026-05-01 10:30 | 41.74930 | 24.04693 | 35289 ft | 468 kts | 168° |
| 2026-05-01 10:31 | 41.63444 | 24.08931 | 35287 ft | 468 kts | 168° |
| 2026-05-01 10:32 | 41.54064 | 24.12510 | 35269 ft | 470 kts | 162° |
| 2026-05-01 10:33 | 41.41997 | 24.19354 | 35260 ft | 471 kts | 161° |
| 2026-05-01 10:34 | 41.32948 | 24.24498 | 35244 ft | 472 kts | 161° |
| 2026-05-01 10:34 | 41.26918 | 24.27931 | 35249 ft | 472 kts | 161° |
| 2026-05-01 10:35 | 41.17856 | 24.33043 | 35241 ft | 472 kts | 161° |
| 2026-05-01 10:35 | 41.11805 | 24.36444 | 35232 ft | 472 kts | 161° |
| 2026-05-01 10:36 | 41.02727 | 24.41544 | 35230 ft | 472 kts | 162° |
| 2026-05-01 10:37 | 40.96678 | 24.44936 | 35230 ft | 472 kts | 161° |
| 2026-05-01 10:37 | 40.87597 | 24.50015 | 35217 ft | 473 kts | 162° |
| 2026-05-01 10:38 | 40.81539 | 24.53397 | 35225 ft | 473 kts | 162° |
| 2026-05-01 10:38 | 40.75470 | 24.56771 | 35249 ft | 473 kts | 162° |
| 2026-05-01 10:39 | 40.69407 | 24.60141 | 35233 ft | 473 kts | 162° |
| 2026-05-01 10:39 | 40.63334 | 24.63510 | 35239 ft | 474 kts | 162° |
| 2026-05-01 10:40 | 40.57260 | 24.66865 | 35245 ft | 474 kts | 163° |
| 2026-05-01 10:40 | 40.51183 | 24.70218 | 35247 ft | 474 kts | 163° |
| 2026-05-01 10:41 | 40.45098 | 24.73570 | 35227 ft | 474 kts | 163° |
| 2026-05-01 10:42 | 40.35961 | 24.78596 | 35240 ft | 475 kts | 163° |
| 2026-05-01 10:42 | 40.29901 | 24.81922 | 35231 ft | 475 kts | 163° |
| 2026-05-01 10:43 | 40.23802 | 24.85267 | 35208 ft | 476 kts | 164° |
| 2026-05-01 10:43 | 40.17687 | 24.88605 | 35216 ft | 476 kts | 164° |
| 2026-05-01 10:44 | 40.11572 | 24.91943 | 35228 ft | 477 kts | 164° |
| 2026-05-01 10:44 | 40.05445 | 24.95274 | 35212 ft | 477 kts | 164° |
| 2026-05-01 10:45 | 39.99320 | 24.98597 | 35209 ft | 477 kts | 164° |
| 2026-05-01 10:45 | 39.93189 | 25.01923 | 35206 ft | 477 kts | 164° |
| 2026-05-01 10:46 | 39.87063 | 25.05236 | 35210 ft | 477 kts | 164° |
| 2026-05-01 10:46 | 39.80932 | 25.08538 | 35214 ft | 477 kts | 164° |
| 2026-05-01 10:47 | 39.74809 | 25.11840 | 35188 ft | 477 kts | 165° |
| 2026-05-01 10:47 | 39.68678 | 25.15141 | 35195 ft | 477 kts | 165° |
| 2026-05-01 10:48 | 39.62548 | 25.18437 | 35200 ft | 477 kts | 165° |
| 2026-05-01 10:48 | 39.56415 | 25.21721 | 35185 ft | 477 kts | 165° |
| 2026-05-01 10:49 | 39.50277 | 25.25012 | 35190 ft | 477 kts | 165° |
| 2026-05-01 10:49 | 39.44133 | 25.28290 | 35197 ft | 477 kts | 165° |
| 2026-05-01 10:50 | 39.37992 | 25.31557 | 35194 ft | 478 kts | 165° |
| 2026-05-01 10:50 | 39.31852 | 25.34828 | 35144 ft | 477 kts | 166° |
| 2026-05-01 10:51 | 39.25744 | 25.38066 | 35162 ft | 477 kts | 166° |
| 2026-05-01 10:51 | 39.19550 | 25.41335 | 35159 ft | 478 kts | 166° |
| 2026-05-01 10:52 | 39.13403 | 25.44588 | 35166 ft | 478 kts | 166° |
| 2026-05-01 10:52 | 39.07252 | 25.47841 | 35136 ft | 478 kts | 166° |
| 2026-05-01 10:53 | 39.01092 | 25.51090 | 35143 ft | 479 kts | 166° |
| 2026-05-01 10:53 | 38.94969 | 25.54303 | 35135 ft | 479 kts | 166° |
| 2026-05-01 10:54 | 38.88800 | 25.57533 | 35142 ft | 479 kts | 166° |
| 2026-05-01 10:54 | 38.82624 | 25.60770 | 35124 ft | 480 kts | 167° |
| 2026-05-01 10:55 | 38.76443 | 25.63999 | 35128 ft | 480 kts | 167° |
| 2026-05-01 10:55 | 38.70259 | 25.67225 | 35109 ft | 480 kts | 167° |
| 2026-05-01 10:56 | 38.64072 | 25.70458 | 35113 ft | 480 kts | 167° |
| 2026-05-01 10:56 | 38.57879 | 25.73679 | 35088 ft | 481 kts | 167° |
| 2026-05-01 10:57 | 38.51680 | 25.76887 | 35102 ft | 481 kts | 167° |
| 2026-05-01 10:57 | 38.45469 | 25.80100 | 35105 ft | 482 kts | 167° |
| 2026-05-01 10:58 | 38.39262 | 25.83313 | 35110 ft | 482 kts | 167° |
| 2026-05-01 10:58 | 38.33042 | 25.86523 | 35079 ft | 483 kts | 168° |
| 2026-05-01 10:59 | 38.26814 | 25.89732 | 35084 ft | 484 kts | 168° |
| 2026-05-01 10:59 | 38.20552 | 25.92827 | 35090 ft | 481 kts | 170° |
| 2026-05-01 11:00 | 38.14251 | 25.95655 | 35080 ft | 480 kts | 171° |
| 2026-05-01 11:00 | 38.07962 | 25.98417 | 35103 ft | 483 kts | 171° |
| 2026-05-01 11:01 | 38.01616 | 26.01273 | 35100 ft | 484 kts | 170° |
| 2026-05-01 11:01 | 37.95284 | 26.04174 | 35097 ft | 484 kts | 170° |
| 2026-05-01 11:02 | 37.88947 | 26.07068 | 35058 ft | 484 kts | 171° |
| 2026-05-01 11:02 | 37.82613 | 26.09927 | 35064 ft | 483 kts | 171° |
| 2026-05-01 11:03 | 37.76268 | 26.12777 | 35070 ft | 484 kts | 171° |
| 2026-05-01 11:03 | 37.69928 | 26.15630 | 35075 ft | 484 kts | 171° |
| 2026-05-01 11:04 | 37.63588 | 26.18495 | 35075 ft | 484 kts | 171° |
| 2026-05-01 11:04 | 37.57243 | 26.21354 | 35076 ft | 484 kts | 171° |
| 2026-05-01 11:05 | 37.50901 | 26.24191 | 35073 ft | 484 kts | 171° |
| 2026-05-01 11:05 | 37.44554 | 26.27015 | 35062 ft | 484 kts | 171° |
| 2026-05-01 11:06 | 37.38211 | 26.29848 | 35037 ft | 484 kts | 171° |
| 2026-05-01 11:06 | 37.31870 | 26.32674 | 35048 ft | 483 kts | 171° |
| 2026-05-01 11:07 | 37.22356 | 26.36903 | 35056 ft | 483 kts | 171° |
| 2026-05-01 11:07 | 37.16012 | 26.39715 | 35014 ft | 483 kts | 170° |
| 2026-05-01 11:08 | 37.09673 | 26.42520 | 35030 ft | 483 kts | 170° |
| 2026-05-01 11:09 | 37.00196 | 26.46708 | 35043 ft | 484 kts | 170° |
| 2026-05-01 11:09 | 36.93920 | 26.49859 | 35049 ft | 497 kts | 159° |
| 2026-05-01 11:10 | 36.88460 | 26.55422 | 34849 ft | 519 kts | 136° |
| 2026-05-01 11:10 | 36.86376 | 26.59145 | 34598 ft | 527 kts | 121° |
| 2026-05-01 11:10 | 36.84836 | 26.63319 | 34361 ft | 531 kts | 116° |
| 2026-05-01 11:10 | 36.83383 | 26.67558 | 34125 ft | 532 kts | 115° |
| 2026-05-01 11:11 | 36.81950 | 26.71814 | 33869 ft | 532 kts | 115° |
| 2026-05-01 11:11 | 36.80520 | 26.76073 | 33594 ft | 533 kts | 115° |
| 2026-05-01 11:11 | 36.79078 | 26.80328 | 33246 ft | 532 kts | 116° |
| 2026-05-01 11:11 | 36.77615 | 26.84597 | 32241 ft | 537 kts | 116° |
| 2026-05-01 11:12 | 36.76134 | 26.88880 | 31347 ft | 538 kts | 116° |
| 2026-05-01 11:12 | 36.74645 | 26.93172 | 30372 ft | 542 kts | 116° |
| 2026-05-01 11:12 | 36.73139 | 26.97498 | 29228 ft | 545 kts | 116° |
| 2026-05-01 11:12 | 36.71634 | 27.01830 | 28197 ft | 543 kts | 116° |
| 2026-05-01 11:13 | 36.70132 | 27.06146 | 27188 ft | 542 kts | 116° |
| 2026-05-01 11:13 | 36.68648 | 27.10413 | 26572 ft | 532 kts | 116° |
| 2026-05-01 11:13 | 36.67186 | 27.14617 | 25846 ft | 526 kts | 116° |
| 2026-05-01 11:13 | 36.65734 | 27.18771 | 25130 ft | 519 kts | 116° |
| 2026-05-01 11:14 | 36.64299 | 27.22863 | 24456 ft | 513 kts | 116° |
| 2026-05-01 11:14 | 36.62881 | 27.26906 | 23778 ft | 507 kts | 116° |
| 2026-05-01 11:14 | 36.61478 | 27.30902 | 23053 ft | 501 kts | 116° |
| 2026-05-01 11:14 | 36.60098 | 27.34838 | 22442 ft | 492 kts | 116° |
| 2026-05-01 11:15 | 36.58743 | 27.38709 | 21812 ft | 483 kts | 116° |
| 2026-05-01 11:15 | 36.57414 | 27.42503 | 21232 ft | 474 kts | 116° |
| 2026-05-01 11:15 | 36.56107 | 27.46230 | 20663 ft | 466 kts | 116° |
| 2026-05-01 11:15 | 36.54834 | 27.49844 | 20111 ft | 458 kts | 116° |
| 2026-05-01 11:16 | 36.53566 | 27.53428 | 19599 ft | 448 kts | 116° |
| 2026-05-01 11:16 | 36.52319 | 27.56935 | 19079 ft | 439 kts | 116° |
| 2026-05-01 11:16 | 36.51097 | 27.60368 | 18611 ft | 430 kts | 117° |
| 2026-05-01 11:16 | 36.49897 | 27.63734 | 18132 ft | 422 kts | 117° |
| 2026-05-01 11:17 | 36.48721 | 27.67032 | 17656 ft | 413 kts | 116° |
| 2026-05-01 11:17 | 36.47567 | 27.70268 | 17212 ft | 408 kts | 116° |
| 2026-05-01 11:17 | 36.46595 | 27.73573 | 16775 ft | 408 kts | 107° |
| 2026-05-01 11:17 | 36.46024 | 27.77017 | 16333 ft | 407 kts | 100° |
| 2026-05-01 11:18 | 36.45570 | 27.80473 | 15873 ft | 404 kts | 101° |
| 2026-05-01 11:18 | 36.45114 | 27.83908 | 15402 ft | 401 kts | 100° |
| 2026-05-01 11:18 | 36.44656 | 27.87310 | 14945 ft | 398 kts | 102° |
| 2026-05-01 11:18 | 36.43933 | 27.90604 | 14462 ft | 393 kts | 112° |
| 2026-05-01 11:19 | 36.42788 | 27.93656 | 13991 ft | 388 kts | 123° |
| 2026-05-01 11:19 | 36.41289 | 27.96403 | 13458 ft | 382 kts | 131° |
| 2026-05-01 11:19 | 36.40216 | 27.98126 | 13145 ft | 380 kts | 131° |
| 2026-05-01 11:19 | 36.38608 | 28.00720 | 12652 ft | 377 kts | 131° |
| 2026-05-01 11:20 | 36.37017 | 28.03291 | 12159 ft | 374 kts | 130° |
| 2026-05-01 11:20 | 36.35440 | 28.05841 | 11646 ft | 371 kts | 130° |
| 2026-05-01 11:20 | 36.33878 | 28.08372 | 11128 ft | 368 kts | 130° |
| 2026-05-01 11:20 | 36.32363 | 28.10898 | 10802 ft | 359 kts | 128° |
| 2026-05-01 11:21 | 36.30939 | 28.13362 | 10665 ft | 344 kts | 128° |
| 2026-05-01 11:21 | 36.29589 | 28.15730 | 10539 ft | 329 kts | 128° |
| 2026-05-01 11:21 | 36.28291 | 28.18009 | 10323 ft | 320 kts | 128° |
| 2026-05-01 11:21 | 36.27019 | 28.20232 | 10128 ft | 313 kts | 128° |
| 2026-05-01 11:22 | 36.25750 | 28.22432 | 10059 ft | 314 kts | 128° |
| 2026-05-01 11:22 | 36.24523 | 28.24668 | 9842 ft | 316 kts | 120° |
| 2026-05-01 11:22 | 36.23888 | 28.27272 | 9313 ft | 317 kts | 93° |
| 2026-05-01 11:22 | 36.24062 | 28.29971 | 8877 ft | 313 kts | 73° |
| 2026-05-01 11:23 | 36.24985 | 28.32337 | 8541 ft | 301 kts | 47° |
| 2026-05-01 11:23 | 36.26566 | 28.33929 | 8162 ft | 289 kts | 20° |
| 2026-05-01 11:23 | 36.28461 | 28.34635 | 7795 ft | 283 kts | 7° |
| 2026-05-01 11:23 | 36.30385 | 28.35099 | 7298 ft | 281 kts | 6° |
| 2026-05-01 11:24 | 36.32287 | 28.35530 | 6815 ft | 275 kts | 6° |
| 2026-05-01 11:24 | 36.34154 | 28.35946 | 6333 ft | 270 kts | 6° |
| 2026-05-01 11:24 | 36.37789 | 28.36720 | 5318 ft | 261 kts | 6° |
| 2026-05-01 11:25 | 36.39569 | 28.37074 | 4842 ft | 257 kts | 6° |
| 2026-05-01 11:25 | 36.42924 | 28.36975 | 4090 ft | 232 kts | 328° |
| 2026-05-01 11:25 | 36.44027 | 28.35654 | 3725 ft | 216 kts | 297° |
| 2026-05-01 11:26 | 36.44541 | 28.33944 | 3483 ft | 207 kts | 287° |
| 2026-05-01 11:26 | 36.45289 | 28.30605 | 3071 ft | 197 kts | 285° |
| 2026-05-01 11:26 | 36.45638 | 28.28987 | 2990 ft | 197 kts | 285° |
| 2026-05-01 11:27 | 36.45847 | 28.27274 | 2808 ft | 199 kts | 268° |
| 2026-05-01 11:27 | 36.45501 | 28.25618 | 2556 ft | 198 kts | 252° |
| 2026-05-01 11:27 | 36.45041 | 28.24053 | 2320 ft | 192 kts | 252° |
| 2026-05-01 11:27 | 36.44591 | 28.22515 | 2048 ft | 181 kts | 253° |
| 2026-05-01 11:28 | 36.44179 | 28.21105 | 1826 ft | 166 kts | 252° |
| 2026-05-01 11:28 | 36.43805 | 28.19821 | 1608 ft | 150 kts | 253° |
| 2026-05-01 11:28 | 36.43459 | 28.18634 | 1416 ft | 143 kts | 252° |
| 2026-05-01 11:29 | 36.42799 | 28.16369 | 1045 ft | 138 kts | 252° |
| 2026-05-01 11:29 | 36.42476 | 28.15262 | 865 ft | 136 kts | 252° |
| 2026-05-01 11:29 | 36.41830 | 28.13048 | 526 ft | 135 kts | 251° |
| 2026-05-01 11:30 | 36.41510 | 28.11958 | 337 ft | 135 kts | 252° |
| 2026-05-01 11:30 | 36.41189 | 28.10857 | 187 ft | 135 kts | 250° |
| 2026-05-01 11:30 | 36.40879 | 28.09780 | 46 ft | 131 kts | 251° |
| 2026-05-01 11:30 | 36.40594 | 28.08808 | 28 ft | 96 kts | 250° |
| 2026-05-01 11:31 | 36.40440 | 28.08284 | 28 ft | 42 kts | 249° |
| 2026-05-01 11:31 | 36.40349 | 28.08047 | 29 ft | 25 kts | 233° |
| 2026-05-01 11:31 | 36.40258 | 28.07933 | 28 ft | 17 kts | 222° |
| 2026-05-01 11:31 | 36.40190 | 28.07860 | 28 ft | 12 kts | 215° |
| 2026-05-01 11:32 | 36.40148 | 28.07903 | 28 ft | 9 kts | 83° |
| 2026-05-01 11:32 | 36.40167 | 28.07977 | 28 ft | 8 kts | 71° |
| 2026-05-01 11:32 | 36.40186 | 28.08041 | 28 ft | 8 kts | 69° |
| 2026-05-01 11:32 | 36.40209 | 28.08115 | 28 ft | 11 kts | 70° |
| 2026-05-01 11:33 | 36.40246 | 28.08243 | 28 ft | 20 kts | 69° |
| 2026-05-01 11:33 | 36.40294 | 28.08403 | 28 ft | 19 kts | 70° |
| 2026-05-01 11:33 | 36.40337 | 28.08555 | 28 ft | 18 kts | 70° |
| 2026-05-01 11:33 | 36.40378 | 28.08696 | 28 ft | 17 kts | 70° |
| 2026-05-01 11:34 | 36.40401 | 28.08832 | 28 ft | 15 kts | 90° |
| 2026-05-01 11:34 | 36.40396 | 28.08959 | 28 ft | 14 kts | 86° |
| 2026-05-01 11:34 | 36.40418 | 28.09070 | 28 ft | 13 kts | 70° |
| 2026-05-01 11:34 | 36.40430 | 28.09158 | 28 ft | 8 kts | 137° |
| 2026-05-01 11:35 | 36.40387 | 28.09181 | 28 ft | 4 kts | 159° |
| 2026-05-01 11:35 | 36.40378 | 28.09185 | 28 ft | 0 kts | 159° |